Ettrick, Wisconsin
Current Conditions -  °F | °C
As of 8:53 AM on Monday 22 Dec 2014 (Local Time) from KLSE Reporting Station
Overcast Overcast  
Wind Chill: 31°   Ceiling: 1600
Heat Index: 38°   Visibility: 7mi
Dew Point: 32°   Wind: 10mph
Humidity: 79%   Direction: 140°SE
Pressure: 29.76"   Gusts: NA
Location:  44.17°N, 91.27°W
Report Text: KLSE 221453Z 14009KT 7SM OVC016 03/00 A2976 RMK AO2 SLP086 T00330000 57008
Loading
Personal Weather Stations






























Interactive Weather Map New forecast layout! Learn more

10-Day Weather Forecast

Advertisements
Track Severe Weather on mobile